createdAt,value
2018-04-24T00:00:53.283Z,45.65
2018-04-24T00:01:55.268Z,46.39
2018-04-24T00:02:53.284Z,45.41
2018-04-24T00:08:56.530Z,46.14
2018-04-24T00:09:56.608Z,45.17
2018-04-24T00:10:57.030Z,46.14
2018-04-24T00:12:18.034Z,45.65
2018-04-24T00:12:57.030Z,45.90
2018-04-24T00:13:56.502Z,45.17
2018-04-24T00:14:57.532Z,45.65
2018-04-24T00:15:57.538Z,45.65
2018-04-24T00:16:57.530Z,44.92
2018-04-24T00:18:21.979Z,46.63
2018-04-24T00:18:58.029Z,44.92
2018-04-24T00:22:29.410Z,44.43
2018-04-24T00:23:29.411Z,44.92
2018-04-24T00:24:29.911Z,47.85
2018-04-24T00:25:50.114Z,47.85
2018-04-24T00:33:05.628Z,46.14
2018-04-24T00:34:27.656Z,46.39
2018-04-24T00:35:31.562Z,46.39
2018-04-24T00:36:06.561Z,47.36
2018-04-24T00:37:32.134Z,46.88
2018-04-24T00:40:36.643Z,45.65
2018-04-24T00:41:36.646Z,56.40
2018-04-24T00:42:58.143Z,45.90
2018-04-24T00:43:38.585Z,51.76
2018-04-24T00:48:41.017Z,44.68
2018-04-24T00:49:40.017Z,44.68
2018-04-24T00:51:01.525Z,45.90
2018-04-24T00:51:55.949Z,45.65
2018-04-24T00:52:42.536Z,45.41
2018-04-24T00:54:01.524Z,46.14
2018-04-24T00:54:40.516Z,46.63
2018-04-24T00:55:43.021Z,47.61
2018-04-24T00:59:33.390Z,46.14
2018-04-24T01:00:13.863Z,44.92
2018-04-24T01:01:14.895Z,45.90
2018-04-24T01:02:33.102Z,45.41
2018-04-24T01:05:44.347Z,45.90
2018-04-24T01:06:44.353Z,47.12
2018-04-24T01:07:43.942Z,46.88
2018-04-24T01:11:16.202Z,49.32
2018-04-24T01:12:16.203Z,49.07
2018-04-24T01:13:18.133Z,52.98
2018-04-24T01:14:37.703Z,46.88
2018-04-24T01:17:49.363Z,46.88
2018-04-24T01:18:49.385Z,46.63
2018-04-24T01:19:48.957Z,45.90
2018-04-24T01:21:10.864Z,45.90
2018-04-24T01:21:49.864Z,48.10
2018-04-24T01:22:49.867Z,84.96
2018-04-24T01:24:11.364Z,46.14
2018-04-24T01:25:11.364Z,45.90
2018-04-24T01:25:50.366Z,47.85
2018-04-24T01:26:50.368Z,45.41
2018-04-24T01:27:50.864Z,46.88
2018-04-24T01:28:51.872Z,46.14
2018-04-24T01:29:50.907Z,84.72
2018-04-24T01:30:50.257Z,46.63
2018-04-24T01:31:56.863Z,47.36
2018-04-24T01:32:51.367Z,46.63
2018-04-24T01:33:51.360Z,45.90
2018-04-24T01:34:51.367Z,45.90
2018-04-24T01:35:51.363Z,45.90
2018-04-24T01:37:14.863Z,45.90
2018-04-24T01:37:51.863Z,47.12
2018-04-24T01:38:51.211Z,46.63
2018-04-24T01:39:51.863Z,46.39
2018-04-24T01:40:52.364Z,46.63
2018-04-24T01:42:14.796Z,46.63
2018-04-24T01:42:52.364Z,46.63
2018-04-24T01:43:52.371Z,48.58
2018-04-24T01:44:52.363Z,46.39
2018-04-24T01:48:24.107Z,47.12
2018-04-24T01:49:24.114Z,46.88
2018-04-24T01:50:25.605Z,47.12
2018-04-24T01:51:24.608Z,47.85
2018-04-24T01:52:24.606Z,46.63
2018-04-24T01:53:24.606Z,47.36
2018-04-24T01:54:39.107Z,47.36
2018-04-24T01:55:25.111Z,49.80
2018-04-24T01:56:25.107Z,50.78
2018-04-24T01:57:25.106Z,47.12
2018-04-24T01:58:46.606Z,46.39
2018-04-24T01:59:25.615Z,49.32
2018-04-24T02:00:25.606Z,47.61
2018-04-24T02:01:25.605Z,47.12
2018-04-24T02:02:26.104Z,46.63
2018-04-24T02:03:47.105Z,51.76
2018-04-24T02:04:26.111Z,46.88
2018-04-24T02:05:26.109Z,54.93
2018-04-24T02:06:26.607Z,48.58
2018-04-24T02:07:47.609Z,46.63
2018-04-24T02:08:26.604Z,79.59
2018-04-24T02:09:26.615Z,46.88
2018-04-24T02:10:49.103Z,46.39
2018-04-24T02:13:58.491Z,47.61
2018-04-24T02:15:19.489Z,46.63
2018-04-24T02:16:00.420Z,46.63
2018-04-24T02:19:29.826Z,46.63
2018-04-24T02:20:53.861Z,46.14
2018-04-24T02:21:36.859Z,47.12
2018-04-24T02:22:36.880Z,48.34
2018-04-24T02:23:30.862Z,80.81
2018-04-24T02:24:31.360Z,88.87
2018-04-24T02:25:31.358Z,48.34
2018-04-24T02:26:31.359Z,47.36
2018-04-24T02:27:31.358Z,47.36
2018-04-24T02:28:31.865Z,52.49
2018-04-24T02:29:31.858Z,47.12
2018-04-24T02:30:52.191Z,46.88
2018-04-24T02:31:52.858Z,46.88
2018-04-24T02:32:31.858Z,80.08
2018-04-24T02:36:03.615Z,48.34
2018-04-24T02:37:03.616Z,48.58
2018-04-24T02:38:25.114Z,48.83
2018-04-24T02:39:26.113Z,48.34
2018-04-24T02:40:25.193Z,67.38
2018-04-24T02:41:04.114Z,50.29
2018-04-24T02:42:04.624Z,48.58
2018-04-24T02:43:26.622Z,49.07
2018-04-24T02:44:03.987Z,50.05
2018-04-24T02:45:05.576Z,49.56
2018-04-24T02:46:05.114Z,49.07
2018-04-24T02:47:05.112Z,48.83
2018-04-24T02:48:05.117Z,49.32
2018-04-24T02:49:05.123Z,50.05
2018-04-24T02:52:36.893Z,49.07
2018-04-24T02:53:58.875Z,48.34
2018-04-24T02:54:51.377Z,48.34
2018-04-24T02:55:38.810Z,47.85
2018-04-24T02:56:37.377Z,82.03
2018-04-24T02:57:37.377Z,85.45
2018-04-24T02:58:51.878Z,63.48
2018-04-24T02:59:58.075Z,57.37
2018-04-24T03:00:37.905Z,46.88
2018-04-24T03:01:58.880Z,48.83
2018-04-24T03:02:37.877Z,48.10
2018-04-24T03:06:10.612Z,49.80
2018-04-24T03:07:11.075Z,49.56
2018-04-24T03:12:12.759Z,51.76
2018-04-24T03:13:12.757Z,52.49
2018-04-24T03:14:18.189Z,82.03
2018-04-24T03:15:13.258Z,57.62
2018-04-24T03:16:13.269Z,52.98
2018-04-24T03:17:13.256Z,59.81
2018-04-24T03:21:06.010Z,83.50
2018-04-24T03:21:45.010Z,59.33
2018-04-24T03:22:51.509Z,70.80
2018-04-24T03:23:45.506Z,80.57
2018-04-24T03:27:16.368Z,61.04
2018-04-24T03:28:18.452Z,62.99
2018-04-24T03:29:19.513Z,83.01
2018-04-24T03:32:50.191Z,59.81
2018-04-24T03:33:48.758Z,81.05
2018-04-24T03:34:51.258Z,78.86
2018-04-24T03:35:49.258Z,61.28
2018-04-24T03:37:11.736Z,64.45
2018-04-24T03:37:49.257Z,62.99
2018-04-24T03:38:51.756Z,62.26
2018-04-24T03:39:51.234Z,81.54
2018-04-24T03:40:49.757Z,63.96
2018-04-24T03:41:49.760Z,64.45
2018-04-24T03:46:52.570Z,77.15
2018-04-24T03:47:53.233Z,87.65
2018-04-24T03:51:26.422Z,87.65
2018-04-24T03:52:25.986Z,62.01
2018-04-24T03:53:24.996Z,63.23
2018-04-24T03:54:25.491Z,81.79
2018-04-24T03:55:25.487Z,84.23
2018-04-24T03:56:25.488Z,60.30
2018-04-24T03:57:25.487Z,82.76
2018-04-24T04:00:57.203Z,71.78
2018-04-24T04:01:57.244Z,83.50
2018-04-24T04:05:29.489Z,80.08
2018-04-24T04:06:29.500Z,62.50
2018-04-24T04:07:30.065Z,62.01
2018-04-24T04:11:01.373Z,58.11
2018-04-24T04:12:01.385Z,61.04
2018-04-24T04:13:01.877Z,83.74
2018-04-24T04:14:01.931Z,62.50
2018-04-24T04:15:01.868Z,83.50
2018-04-24T04:16:01.975Z,84.47
2018-04-24T04:17:16.367Z,76.17
2018-04-24T04:18:02.370Z,59.08
2018-04-24T04:19:02.360Z,65.67
2018-04-24T04:20:02.367Z,85.45
2018-04-24T04:21:02.879Z,63.48
2018-04-24T04:22:02.866Z,86.18
2018-04-24T04:23:02.868Z,80.57
2018-04-24T04:24:25.339Z,56.64
2018-04-24T04:27:34.597Z,82.03
2018-04-24T04:28:34.605Z,83.01
2018-04-24T04:29:36.068Z,78.61
2018-04-24T04:30:35.095Z,74.46
2018-04-24T04:31:35.099Z,84.96
2018-04-24T04:32:35.096Z,83.01
2018-04-24T04:33:35.594Z,58.35
2018-04-24T04:37:30.007Z,87.89
2018-04-24T04:38:07.003Z,58.11
2018-04-24T04:39:30.503Z,60.30
2018-04-24T04:40:07.504Z,88.87
2018-04-24T04:43:42.000Z,89.60
2018-04-24T04:44:40.429Z,55.66
2018-04-24T04:46:01.929Z,85.21
2018-04-24T04:51:42.368Z,80.81
2018-04-24T04:52:41.842Z,86.91
2018-04-24T04:56:35.077Z,84.96
2018-04-24T04:57:16.076Z,86.18
2018-04-24T05:01:06.835Z,83.01
2018-04-24T05:01:45.833Z,81.30
2018-04-24T05:05:38.580Z,83.98
2018-04-24T05:06:40.513Z,60.55
2018-04-24T05:07:32.080Z,60.55
2018-04-24T05:08:24.080Z,60.55
2018-04-24T05:09:22.012Z,85.45
2018-04-24T05:16:52.625Z,84.72
2018-04-24T05:17:52.095Z,83.98
2018-04-24T05:18:53.119Z,83.74
2018-04-24T05:19:53.119Z,83.50
2018-04-24T05:20:53.130Z,84.72
2018-04-24T05:21:53.119Z,85.69
2018-04-24T05:22:53.625Z,85.94
2018-04-24T05:23:53.618Z,83.50
2018-04-24T05:24:53.644Z,84.47
2018-04-24T05:25:53.622Z,81.54
2018-04-24T05:26:54.127Z,84.96
2018-04-24T05:27:54.119Z,86.18
2018-04-24T05:28:54.131Z,85.45
2018-04-24T05:29:54.118Z,83.74
2018-04-24T05:34:57.603Z,83.25
2018-04-24T05:35:57.608Z,86.18
2018-04-24T05:39:29.356Z,80.57
2018-04-24T05:40:43.355Z,80.81
2018-04-24T05:41:29.863Z,59.33
2018-04-24T05:42:29.854Z,85.45
2018-04-24T05:43:29.854Z,78.61
2018-04-24T05:44:29.854Z,81.79
2018-04-24T05:45:31.787Z,83.98
2018-04-24T05:46:52.351Z,83.98
2018-04-24T05:47:29.577Z,82.03
2018-04-24T05:48:50.651Z,87.16
2018-04-24T05:49:30.354Z,66.89
2018-04-24T05:50:30.353Z,84.96
2018-04-24T05:51:30.857Z,83.98
2018-04-24T05:52:30.114Z,84.96
2018-04-24T05:53:30.870Z,85.21
2018-04-24T05:54:30.216Z,83.98
2018-04-24T05:55:31.786Z,82.52
2018-04-24T05:59:04.136Z,86.91
2018-04-24T06:02:34.742Z,82.28
2018-04-24T06:03:56.242Z,84.23
2018-04-24T06:04:34.471Z,66.65
2018-04-24T06:05:35.242Z,81.05
2018-04-24T06:06:34.717Z,83.01
2018-04-24T06:07:35.742Z,86.18
2018-04-24T06:08:35.757Z,83.25
2018-04-24T06:12:07.741Z,83.50
2018-04-24T06:13:07.740Z,84.47
2018-04-24T06:14:07.740Z,84.23
2018-04-24T06:15:29.240Z,80.32
2018-04-24T06:16:08.248Z,83.01
2018-04-24T06:17:08.250Z,83.25
2018-04-24T06:18:10.173Z,55.91
2018-04-24T06:19:09.672Z,83.01
2018-04-24T06:20:08.741Z,82.52
2018-04-24T06:21:08.746Z,79.59
2018-04-24T06:22:08.740Z,79.35
2018-04-24T06:23:08.356Z,83.98
2018-04-24T06:24:29.429Z,83.98
2018-04-24T06:25:09.241Z,80.57
2018-04-24T06:26:09.254Z,82.52
2018-04-24T06:27:09.243Z,55.42
2018-04-24T06:28:30.798Z,81.05
2018-04-24T06:29:29.942Z,80.81
2018-04-24T06:30:09.739Z,82.28
2018-04-24T06:33:56.247Z,85.21
2018-04-24T06:34:41.752Z,83.01
2018-04-24T06:38:12.967Z,83.74
2018-04-24T06:39:34.153Z,83.98
2018-04-24T06:40:34.996Z,83.98
2018-04-24T06:41:13.227Z,61.04
2018-04-24T06:42:14.048Z,82.52
2018-04-24T06:43:13.991Z,80.57
2018-04-24T06:44:14.486Z,79.59
2018-04-24T06:45:14.500Z,80.81
2018-04-24T06:46:15.488Z,79.83
2018-04-24T06:47:15.975Z,62.50
2018-04-24T06:48:38.922Z,84.23
2018-04-24T06:49:14.990Z,82.03
2018-04-24T06:50:14.998Z,76.17
2018-04-24T06:51:14.989Z,85.45
2018-04-24T06:52:15.491Z,61.52
2018-04-24T06:53:15.481Z,78.13
2018-04-24T06:54:15.494Z,82.76
2018-04-24T06:55:15.490Z,81.79
2018-04-24T06:56:15.999Z,83.25
2018-04-24T06:57:15.990Z,80.32
2018-04-24T06:58:18.469Z,81.79
2018-04-24T06:59:17.421Z,87.65
2018-04-24T07:00:37.586Z,82.52
2018-04-24T07:03:47.775Z,77.39
2018-04-24T07:04:47.776Z,81.79
2018-04-24T07:05:49.274Z,85.45
2018-04-24T07:07:02.276Z,58.59
2018-04-24T07:07:50.280Z,81.54
2018-04-24T07:11:19.912Z,83.01
2018-04-24T07:12:20.873Z,80.57
2018-04-24T07:13:40.454Z,81.05
2018-04-24T07:17:13.208Z,81.79
2018-04-24T07:18:13.208Z,84.23
2018-04-24T07:18:51.691Z,83.98
2018-04-24T07:19:54.719Z,83.01
2018-04-24T07:20:54.709Z,83.74
2018-04-24T07:22:15.189Z,60.55
2018-04-24T07:23:13.708Z,60.79
2018-04-24T07:24:14.218Z,81.05
2018-04-24T07:25:14.209Z,60.06
2018-04-24T07:25:53.237Z,80.57
2018-04-24T07:27:15.224Z,53.96
2018-04-24T07:28:02.140Z,60.06
2018-04-24T07:28:53.709Z,53.96
2018-04-24T07:29:53.717Z,53.96
2018-04-24T07:30:53.719Z,85.94
2018-04-24T07:32:17.212Z,54.20
2018-04-24T07:35:25.596Z,48.83
2018-04-24T07:36:25.607Z,82.76
2018-04-24T07:37:26.100Z,82.03
2018-04-24T07:38:26.101Z,82.03
2018-04-24T07:39:26.098Z,81.05
2018-04-24T07:40:25.575Z,82.28
2018-04-24T07:41:26.600Z,80.57
2018-04-24T07:42:26.656Z,56.15
2018-04-24T07:43:26.599Z,82.52
2018-04-24T07:44:26.600Z,83.74
2018-04-24T07:45:26.593Z,85.45
2018-04-24T07:46:27.111Z,80.57
2018-04-24T07:47:28.584Z,68.85
2018-04-24T07:48:27.099Z,66.16
2018-04-24T07:49:27.100Z,77.64
2018-04-24T07:50:48.604Z,82.52
2018-04-24T07:51:41.602Z,82.76
2018-04-24T07:52:27.601Z,54.93
2018-04-24T07:53:29.032Z,79.10
2018-04-24T07:54:30.101Z,82.03
2018-04-24T07:55:29.095Z,81.79
2018-04-24T07:56:28.106Z,83.50
2018-04-24T07:57:28.111Z,84.47
2018-04-24T08:01:20.865Z,80.57
2018-04-24T08:02:21.379Z,64.70
2018-04-24T08:05:31.766Z,77.88
2018-04-24T08:06:34.264Z,79.59
2018-04-24T08:07:32.255Z,79.10
2018-04-24T08:08:59.255Z,74.95
2018-04-24T08:09:33.253Z,62.74
2018-04-24T08:10:32.264Z,80.57
2018-04-24T08:11:32.763Z,83.50
2018-04-24T08:12:33.782Z,65.43
2018-04-24T08:13:32.758Z,83.50
2018-04-24T08:14:32.757Z,84.72
2018-04-24T08:15:32.357Z,83.50
2018-04-24T08:17:35.191Z,81.54
2018-04-24T08:18:33.254Z,75.68
2018-04-24T08:19:32.891Z,81.79
2018-04-24T08:20:33.763Z,81.79
2018-04-24T08:21:33.756Z,83.50
2018-04-24T08:22:33.841Z,83.50
2018-04-24T08:23:34.256Z,81.30
2018-04-24T08:24:34.256Z,81.05
2018-04-24T08:25:34.252Z,82.03
2018-04-24T08:26:34.254Z,83.25
2018-04-24T08:27:34.755Z,51.03
2018-04-24T08:31:20.159Z,79.35
2018-04-24T08:32:06.156Z,57.62
2018-04-24T08:33:06.655Z,79.35
2018-04-24T08:34:06.659Z,83.25
2018-04-24T08:35:06.656Z,82.76
2018-04-24T08:36:06.657Z,79.35
2018-04-24T08:37:07.162Z,83.50
2018-04-24T08:38:06.386Z,49.56
2018-04-24T08:39:07.158Z,54.20
2018-04-24T08:40:07.216Z,76.17
2018-04-24T08:41:06.756Z,57.86
2018-04-24T08:42:07.680Z,61.04
2018-04-24T08:43:07.655Z,80.08
2018-04-24T08:44:07.658Z,78.61
2018-04-24T08:45:07.661Z,82.76
2018-04-24T08:46:08.157Z,80.81
2018-04-24T08:47:07.379Z,79.83
2018-04-24T08:48:08.163Z,76.66
2018-04-24T08:49:08.158Z,81.05
2018-04-24T08:50:35.663Z,83.50
2018-04-24T08:53:54.841Z,79.35
2018-04-24T08:54:40.841Z,80.08
2018-04-24T08:55:40.442Z,83.98
2018-04-24T08:56:41.343Z,80.08
2018-04-24T08:58:02.342Z,79.10
2018-04-24T08:58:40.820Z,81.30
2018-04-24T08:59:40.921Z,81.54
2018-04-24T09:00:41.842Z,79.83
2018-04-24T09:01:47.841Z,80.81
2018-04-24T09:02:41.213Z,81.54
2018-04-24T09:03:43.847Z,82.76
2018-04-24T09:05:03.340Z,51.03
2018-04-24T09:05:42.339Z,83.98
2018-04-24T09:06:42.344Z,51.03
2018-04-24T09:07:41.829Z,80.57
2018-04-24T09:08:42.840Z,83.50
2018-04-24T09:10:42.840Z,48.83
2018-04-24T09:11:42.840Z,81.54
2018-04-24T09:12:42.448Z,59.57
2018-04-24T09:13:57.345Z,83.74
2018-04-24T09:14:43.345Z,76.90
2018-04-24T09:15:43.443Z,83.25
2018-04-24T09:19:15.091Z,80.81
2018-04-24T09:20:15.089Z,70.80
2018-04-24T09:21:15.589Z,79.35
2018-04-24T09:22:15.588Z,82.03
2018-04-24T09:23:36.599Z,80.08
2018-04-24T09:24:15.588Z,54.69
2018-04-24T09:25:16.090Z,54.93
2018-04-24T09:26:17.529Z,80.81
2018-04-24T09:27:16.179Z,60.06
2018-04-24T09:28:17.538Z,80.57
2018-04-24T09:29:17.584Z,79.83
2018-04-24T09:30:18.045Z,81.79
2018-04-24T09:34:09.051Z,76.66
2018-04-24T09:35:02.554Z,76.17
2018-04-24T09:35:50.550Z,79.10
2018-04-24T09:37:15.554Z,80.81
2018-04-24T09:38:09.551Z,53.47
2018-04-24T09:41:19.802Z,56.88
2018-04-24T09:42:20.819Z,53.47
2018-04-24T09:43:20.046Z,55.18
2018-04-24T09:44:21.751Z,83.01
2018-04-24T09:45:20.820Z,83.98
2018-04-24T09:46:21.325Z,78.61
2018-04-24T09:47:41.529Z,82.52
2018-04-24T09:48:21.333Z,69.09
2018-04-24T09:49:24.257Z,81.30
2018-04-24T09:52:53.106Z,81.54
2018-04-24T09:54:22.041Z,81.30
2018-04-24T09:54:53.683Z,79.35
2018-04-24T09:56:17.083Z,85.69
2018-04-24T09:56:53.704Z,67.87
2018-04-24T09:57:56.109Z,79.10
2018-04-24T10:01:46.513Z,80.57
2018-04-24T10:02:26.005Z,82.03
2018-04-24T10:03:47.936Z,71.78
2018-04-24T10:04:47.002Z,80.32
2018-04-24T10:05:26.018Z,83.01
2018-04-24T10:06:27.437Z,77.88
2018-04-24T10:07:26.505Z,78.13
2018-04-24T10:08:26.524Z,81.05
2018-04-24T10:09:26.511Z,81.05
2018-04-24T10:11:02.004Z,79.10
2018-04-24T10:11:41.009Z,78.86
2018-04-24T10:12:27.005Z,81.30
2018-04-24T10:13:27.057Z,81.30
2018-04-24T10:14:47.589Z,76.17
2018-04-24T10:15:27.517Z,82.52
2018-04-24T10:16:27.529Z,77.88
2018-04-24T10:17:27.504Z,65.43
2018-04-24T10:18:27.507Z,79.59
2018-04-24T10:19:28.005Z,90.33
2018-04-24T10:20:28.017Z,80.32
2018-04-24T10:39:46.659Z,85.94
2018-04-24T10:40:47.322Z,82.03
2018-04-24T10:41:47.838Z,77.88
2018-04-24T10:42:47.821Z,80.57
2018-04-24T10:43:53.301Z,83.25
2018-04-24T10:44:47.823Z,83.74
2018-04-24T10:45:48.322Z,82.03
2018-04-24T10:46:48.322Z,83.98
2018-04-24T10:47:48.339Z,77.39
2018-04-24T10:48:48.329Z,78.13
2018-04-24T10:52:23.440Z,84.23
2018-04-24T10:53:22.013Z,79.35
2018-04-24T10:54:43.015Z,83.50
2018-04-24T10:55:22.072Z,69.58
2018-04-24T10:56:22.017Z,77.64
2018-04-24T10:59:55.074Z,82.03
2018-04-24T11:00:53.260Z,83.25
2018-04-24T11:01:53.368Z,82.52
2018-04-24T11:02:56.156Z,84.72
2018-04-24T11:03:54.145Z,79.83
2018-04-24T11:04:54.670Z,83.98
2018-04-24T11:05:54.657Z,81.05
2018-04-24T11:06:54.637Z,80.57
2018-04-24T11:07:54.661Z,81.79
2018-04-24T11:09:22.143Z,82.76
2018-04-24T11:12:26.541Z,82.52
2018-04-24T11:13:26.548Z,77.64
2018-04-24T11:14:27.039Z,82.03
2018-04-24T11:15:27.040Z,77.39
2018-04-24T11:16:27.105Z,82.52
2018-04-24T11:17:27.083Z,80.57
2018-04-24T11:18:27.045Z,76.66
2018-04-24T11:19:27.540Z,81.30
2018-04-24T11:20:27.543Z,83.01
2018-04-24T11:21:27.619Z,61.77
2018-04-24T11:22:27.542Z,80.08
2018-04-24T11:23:28.040Z,85.94
2018-04-24T11:24:27.293Z,80.32
2018-04-24T11:25:28.045Z,82.76
2018-04-24T11:26:28.043Z,78.61
2018-04-24T11:27:32.003Z,81.54
2018-04-24T11:28:27.739Z,84.72
2018-04-24T11:29:27.854Z,83.50
2018-04-24T11:30:28.539Z,81.30
2018-04-24T11:31:28.541Z,81.54
2018-04-24T11:32:28.206Z,83.25
2018-04-24T11:33:50.042Z,81.79
2018-04-24T11:34:29.074Z,62.26
2018-04-24T11:40:58.457Z,59.81
2018-04-24T11:41:58.961Z,82.28
2018-04-24T11:45:30.354Z,79.35
2018-04-24T11:46:30.362Z,78.37
2018-04-24T11:47:29.960Z,78.13
2018-04-24T11:52:33.665Z,81.79
2018-04-24T11:56:27.833Z,79.83
2018-04-24T11:57:29.826Z,77.64
2018-04-24T11:58:48.854Z,80.32
2018-04-24T11:59:30.333Z,76.66
2018-04-24T12:00:30.322Z,84.72
2018-04-24T12:01:28.322Z,80.08
2018-04-24T12:02:28.320Z,81.05
2018-04-24T12:03:49.822Z,83.01
2018-04-24T12:04:30.260Z,79.35
2018-04-24T12:07:59.758Z,57.37
2018-04-24T12:12:44.262Z,87.40
2018-04-24T12:13:55.244Z,84.72
2018-04-24T12:14:43.808Z,79.35
2018-04-24T12:15:50.858Z,80.81
2018-04-24T12:16:54.658Z,90.33
2018-04-24T12:18:08.216Z,79.83
2018-04-24T12:18:47.589Z,79.35
2018-04-24T12:20:08.222Z,79.35
2018-04-24T12:20:54.819Z,81.30
2018-04-24T12:24:37.715Z,81.54
2018-04-24T12:25:44.217Z,82.52
2018-04-24T12:26:17.230Z,60.06
2018-04-24T12:27:16.584Z,81.05
2018-04-24T12:28:17.213Z,83.50
2018-04-24T12:29:37.800Z,59.08
2018-04-24T12:32:49.120Z,85.21
2018-04-24T12:33:49.088Z,79.83
2018-04-24T12:37:34.863Z,83.25
2018-04-24T12:38:47.951Z,81.79
2018-04-24T12:39:20.469Z,55.18
2018-04-24T12:40:21.383Z,84.72
2018-04-24T12:41:21.378Z,83.01
2018-04-24T12:42:21.369Z,80.81
2018-04-24T12:46:21.130Z,83.74
2018-04-24T12:46:53.139Z,78.61
2018-04-24T12:50:24.938Z,82.52
2018-04-24T12:51:24.911Z,81.30
2018-04-24T12:52:24.531Z,83.50
2018-04-24T12:53:25.430Z,79.10
2018-04-24T12:54:46.408Z,66.89
2018-04-24T12:55:25.405Z,79.10
2018-04-24T12:56:46.903Z,46.14
2018-04-24T12:57:25.916Z,81.05
2018-04-24T12:58:46.912Z,83.25
2018-04-24T12:59:25.906Z,80.08
2018-04-24T13:00:26.406Z,81.05
2018-04-24T13:01:25.637Z,82.52
2018-04-24T13:02:26.410Z,82.03
2018-04-24T13:03:26.405Z,82.76
2018-04-24T13:04:26.907Z,78.13
2018-04-24T13:05:26.906Z,83.01
2018-04-24T13:06:26.907Z,83.98
2018-04-24T13:07:26.908Z,48.83
2018-04-24T13:08:54.406Z,82.52
2018-04-24T13:09:27.406Z,77.39
2018-04-24T13:10:27.406Z,83.50
2018-04-24T13:11:27.407Z,78.13
2018-04-24T13:12:27.910Z,76.90
2018-04-24T13:15:59.313Z,80.08
2018-04-24T13:17:20.808Z,80.32
2018-04-24T13:18:01.280Z,81.54
2018-04-24T13:19:20.121Z,79.35
2018-04-24T13:19:59.805Z,75.20
2018-04-24T13:20:59.812Z,81.54
2018-04-24T13:22:02.312Z,81.54
2018-04-24T13:23:00.311Z,63.48
2018-04-24T13:24:21.241Z,79.59
2018-04-24T13:25:00.313Z,83.25
2018-04-24T13:26:02.813Z,81.54
2018-04-24T13:29:32.206Z,81.79
2018-04-24T13:30:35.135Z,79.59
2018-04-24T13:31:32.711Z,82.76
2018-04-24T13:32:32.704Z,80.81
2018-04-24T13:33:32.704Z,82.28
2018-04-24T13:34:33.205Z,79.10
2018-04-24T13:35:33.204Z,79.10
2018-04-24T13:36:33.204Z,81.79
2018-04-24T13:37:33.205Z,84.23
2018-04-24T13:38:33.704Z,83.74
2018-04-24T13:39:33.703Z,84.47
2018-04-24T13:40:33.706Z,80.32
2018-04-24T13:41:33.725Z,80.08
2018-04-24T13:42:33.336Z,81.30
2018-04-24T13:43:38.137Z,58.11
2018-04-24T13:44:36.204Z,82.03
2018-04-24T13:45:34.208Z,80.81
2018-04-24T13:46:34.705Z,83.74
2018-04-24T13:47:34.705Z,79.59
2018-04-24T13:48:34.711Z,83.50
2018-04-24T13:49:34.705Z,82.03
2018-04-24T13:50:35.200Z,81.30
2018-04-24T13:51:35.213Z,81.54
2018-04-24T13:52:35.219Z,83.98
2018-04-24T13:53:35.707Z,78.37
2018-04-24T13:54:58.705Z,81.54
2018-04-24T13:55:35.706Z,78.37
2018-04-24T13:56:35.705Z,83.50
2018-04-24T13:57:35.188Z,82.76
2018-04-24T13:58:36.205Z,83.25
2018-04-24T13:59:36.208Z,81.30
2018-04-24T14:00:35.566Z,45.41
2018-04-24T14:01:36.207Z,82.52
2018-04-24T14:02:36.706Z,81.30
2018-04-24T14:03:35.948Z,82.28
2018-04-24T14:04:57.709Z,81.79
2018-04-24T14:05:36.706Z,78.86
2018-04-24T14:06:36.325Z,80.08
2018-04-24T14:07:36.436Z,82.52
2018-04-24T14:08:37.208Z,82.76
2018-04-24T14:09:37.207Z,83.74
2018-04-24T14:10:37.707Z,79.10
2018-04-24T14:11:37.707Z,77.88
2018-04-24T14:12:58.707Z,84.72
2018-04-24T14:13:37.704Z,67.63
2018-04-24T14:14:52.207Z,81.05
2018-04-24T14:15:38.207Z,82.52
2018-04-24T14:16:38.216Z,82.76
2018-04-24T14:17:38.207Z,81.54
2018-04-24T14:18:37.817Z,78.37
2018-04-24T14:19:38.004Z,80.32
2018-04-24T14:20:44.707Z,83.98
2018-04-24T14:21:38.785Z,81.05
2018-04-24T14:22:41.205Z,81.54
2018-04-24T14:23:39.207Z,84.47
2018-04-24T14:25:00.207Z,84.96
2018-04-24T14:25:39.208Z,77.64
2018-04-24T14:29:32.313Z,83.01
2018-04-24T14:30:11.013Z,82.03
2018-04-24T14:31:32.021Z,81.54
2018-04-24T14:32:31.645Z,78.13
2018-04-24T14:33:11.506Z,78.13
2018-04-24T14:34:11.506Z,81.54
2018-04-24T14:35:10.994Z,81.54
2018-04-24T14:36:12.938Z,81.54
2018-04-24T14:39:45.406Z,78.37
2018-04-24T14:40:43.406Z,78.13
2018-04-24T14:41:45.376Z,81.54
2018-04-24T14:42:43.924Z,81.05
2018-04-24T14:43:43.911Z,79.83
2018-04-24T14:44:43.909Z,79.59
2018-04-24T14:45:43.516Z,82.03
2018-04-24T14:46:43.615Z,82.52
2018-04-24T14:47:45.910Z,77.64
2018-04-24T14:48:44.419Z,82.52
2018-04-24T14:49:46.376Z,79.59
2018-04-24T14:50:44.108Z,82.52
2018-04-24T14:51:46.459Z,80.81
2018-04-24T14:52:44.909Z,83.98
2018-04-24T14:54:08.406Z,80.57
2018-04-24T14:54:45.403Z,82.76
2018-04-24T14:55:45.411Z,82.52
2018-04-24T14:59:17.060Z,83.50
2018-04-24T15:00:17.065Z,73.73
2018-04-24T15:01:19.990Z,80.32
2018-04-24T15:02:17.490Z,81.54
2018-04-24T15:03:17.558Z,84.96
2018-04-24T15:04:17.555Z,80.08
2018-04-24T15:07:49.374Z,75.68
2018-04-24T15:08:49.835Z,81.30
2018-04-24T15:09:49.832Z,83.01
2018-04-24T15:10:49.844Z,81.05
2018-04-24T15:11:49.834Z,78.86
2018-04-24T15:12:49.835Z,81.79
2018-04-24T15:14:11.335Z,81.79
2018-04-24T15:14:50.341Z,73.00
2018-04-24T15:15:50.334Z,82.28
2018-04-24T15:16:50.333Z,82.28
2018-04-24T15:17:50.796Z,93.99
2018-04-24T15:18:50.833Z,85.69
2018-04-24T15:19:50.836Z,82.03
2018-04-24T15:20:50.836Z,82.03
2018-04-24T15:21:52.767Z,78.37
2018-04-24T15:22:51.430Z,84.96
2018-04-24T15:23:50.662Z,83.50
2018-04-24T15:24:51.338Z,84.23
2018-04-24T15:25:50.833Z,82.03
2018-04-24T15:29:23.121Z,60.30
2018-04-24T15:30:23.121Z,82.03
2018-04-24T15:33:54.885Z,80.81
2018-04-24T15:35:17.350Z,79.59
2018-04-24T15:35:54.571Z,78.61
2018-04-24T15:36:55.434Z,82.52
2018-04-24T15:37:55.385Z,81.54
2018-04-24T15:38:55.386Z,80.08
2018-04-24T15:39:55.888Z,81.54
2018-04-24T15:40:55.888Z,84.96
2018-04-24T15:41:55.886Z,74.95
2018-04-24T15:42:55.367Z,80.08
2018-04-24T15:43:56.387Z,63.96
2018-04-24T15:44:56.394Z,80.32
2018-04-24T15:45:56.385Z,82.03
2018-04-24T15:46:56.385Z,92.29
2018-04-24T15:50:28.160Z,81.79
2018-04-24T15:51:28.163Z,84.72
2018-04-24T15:52:28.658Z,83.01
2018-04-24T15:53:28.661Z,84.23
2018-04-24T15:54:32.131Z,77.64
2018-04-24T15:55:28.660Z,82.03
2018-04-24T15:56:29.160Z,56.40
2018-04-24T15:57:30.107Z,81.54
2018-04-24T15:58:29.160Z,79.59
2018-04-24T15:59:29.160Z,81.54
2018-04-24T16:00:29.164Z,78.61
2018-04-24T16:01:29.661Z,78.37
2018-04-24T16:02:29.660Z,80.57
2018-04-24T16:03:29.661Z,77.15
2018-04-24T16:04:29.660Z,82.52
2018-04-24T16:05:30.160Z,80.08
2018-04-24T16:06:30.163Z,80.81
2018-04-24T16:07:30.182Z,81.79
2018-04-24T16:08:30.162Z,80.57
2018-04-24T16:09:32.135Z,80.57
2018-04-24T16:10:31.596Z,80.08
2018-04-24T16:11:30.666Z,83.01
2018-04-24T16:12:30.661Z,83.01
2018-04-24T16:13:31.160Z,79.59
2018-04-24T16:14:30.390Z,77.88
2018-04-24T16:15:31.160Z,83.74
2018-04-24T16:16:31.160Z,84.23
2018-04-24T16:17:31.660Z,58.59
2018-04-24T16:18:51.885Z,80.81
2018-04-24T16:19:31.683Z,78.86
2018-04-24T16:20:31.697Z,82.03
2018-04-24T16:24:03.509Z,82.52
2018-04-24T16:25:03.462Z,87.40
2018-04-24T16:26:03.961Z,83.01
2018-04-24T16:27:05.961Z,82.03
2018-04-24T16:28:24.962Z,80.57
2018-04-24T16:29:03.962Z,81.54
2018-04-24T16:30:24.566Z,81.30
2018-04-24T16:31:25.499Z,58.59
2018-04-24T16:32:25.462Z,58.11
2018-04-24T16:33:25.461Z,79.83
2018-04-24T16:34:06.961Z,74.95
2018-04-24T16:35:04.233Z,53.71
2018-04-24T16:36:25.965Z,83.01
2018-04-24T16:37:04.962Z,65.19
2018-04-24T16:38:05.461Z,82.52
2018-04-24T16:39:26.474Z,83.74
2018-04-24T16:40:04.830Z,54.44
2018-04-24T16:41:05.472Z,83.25
2018-04-24T16:42:26.955Z,82.52
2018-04-24T16:43:05.956Z,57.13
2018-04-24T16:44:05.315Z,77.39
2018-04-24T16:45:05.967Z,53.96
2018-04-24T16:46:27.504Z,79.83
2018-04-24T16:47:06.463Z,80.81
2018-04-24T16:48:06.468Z,83.01
2018-04-24T16:49:06.494Z,82.28
2018-04-24T16:50:27.961Z,78.61
2018-04-24T16:53:38.361Z,80.08
2018-04-24T16:54:38.363Z,78.86